TAF KBGM
AMD KBGM 081926Z 0819/0918 21005KT 1 1/2SM -SN BR OVC015 FM090000 27005KT P6SM OVC009 FM090400 29007G13KT P6SM SCT012=
METAR KBGM
WC KBGM
WS KBGM
WV KBGM